Golden Valley, AZ

6:48 PM MST on January 31, 2015 (GMT -0700)
Kingman | Change Station
CLOSE
Current Station
Airport
Location: Kingman,
Elevation: 3448 ft
Nearby Weather Stations

Elev 3448 ft 35.26 °N, 113.93 °W | Updated 57 minutes ago

Mostly Cloudy
Mostly Cloudy
53 °F
Feels Like 53 °F
N
13
Wind Variable Wind from North

Today
High -- | Low -- °F
--% Chance of Precip.
Yesterday
High -- | Low -- °F
Precip. -- in
7:35 AM 6:02 PM
Waxing Gibbous, 92% visible
Pressure 29.83 in
Visibility 10.0 miles
Clouds Clear
Dew Point 42 °F
Humidity 66%
Rainfall 0.01 in
Snow Depth Not available.
UV 0 out of 12
Pollen 2.70 out of 12
Air Quality Not available.
Flu Activity Not available.
METAR KIGM 010051Z AUTO 35011KT 10SM CLR 12/06 A2993 RMK AO2 SLP101 T01170056

More Conditions Fewer Conditions

Pressure 29.83 in
Visibility 10.0 miles
Clouds Clear
Dew Point 42 °F
Humidity 66%
Rainfall 0.01 in
Snow Depth Not available.
UV 0 out of 12
Pollen 2.70 out of 12
Air Quality Not available.
Flu Activity Not available.
METAR KIGM 010051Z AUTO 35011KT 10SM CLR 12/06 A2993 RMK AO2 SLP101 T01170056

More Conditions Fewer Conditions

10-Day Weather Forecast

Almanac

Astronomy

Jan. 31, 2015 Rise Set
Actual Time
Civil Twilight
Nautical Twilight
Astronomical Twilight
Moon
Length of Visible Light
Length of Day
Tomorrow will be .
, % of the Moon is Illuminated

Today's Extremes

State Highs State Lows

Community

WunderPhotos

Upload Photos

1,792,280 photos uploaded!

WunderBlogs® & News

Nearby

Air Quality

  Air Quality AQ Index Pollutant
Not available.

Snow Depth

Station Depth Elevation

Earthquake Activity

City Distance Mag. Time & Date
Minimum magnitude displayed is 2.5.

Coastal Water Temperatures

Place Temperature

Nearby Weather Stations